createdAt,value
2023-02-18T00:01:49.287Z,8.81
2023-02-18T00:04:17.023Z,8.81
2023-02-18T00:06:46.165Z,8.80
2023-02-18T00:09:13.934Z,8.77
2023-02-18T00:11:41.663Z,8.74
2023-02-18T00:14:13.323Z,8.73
2023-02-18T00:16:41.522Z,8.69
2023-02-18T00:19:12.842Z,8.66
2023-02-18T00:21:40.701Z,8.65
2023-02-18T00:24:12.541Z,8.65
2023-02-18T00:26:40.283Z,8.63
2023-02-18T00:29:08.099Z,8.57
2023-02-18T00:31:38.068Z,8.57
2023-02-18T00:34:06.963Z,8.58
2023-02-18T00:36:35.782Z,8.54
2023-02-18T00:39:07.640Z,8.54
2023-02-18T00:41:37.275Z,8.51
2023-02-18T00:44:05.789Z,8.51
2023-02-18T00:46:34.546Z,8.50
2023-02-18T00:49:02.711Z,8.49
2023-02-18T00:51:30.528Z,8.53
2023-02-18T00:53:58.427Z,8.54
2023-02-18T00:56:26.253Z,8.54
2023-02-18T00:58:55.377Z,8.55
2023-02-18T01:01:24.264Z,8.56
2023-02-18T01:03:52.079Z,8.58
2023-02-18T01:06:19.819Z,8.60
2023-02-18T01:08:47.550Z,8.60
2023-02-18T01:11:15.844Z,8.62
2023-02-18T01:13:43.710Z,8.63
2023-02-18T01:16:12.847Z,8.63
2023-02-18T01:18:41.686Z,8.61
2023-02-18T01:21:10.222Z,8.64
2023-02-18T01:23:39.566Z,8.68
2023-02-18T01:26:07.752Z,8.70
2023-02-18T01:28:35.857Z,8.69
2023-02-18T01:31:07.750Z,8.66
2023-02-18T01:33:37.630Z,8.66
2023-02-18T01:36:06.936Z,8.69
2023-02-18T01:38:35.137Z,8.67
2023-02-18T01:41:02.935Z,8.69
2023-02-18T01:43:30.856Z,8.66
2023-02-18T01:46:04.623Z,8.68
2023-02-18T01:48:35.025Z,8.67
2023-02-18T01:51:10.271Z,8.70
2023-02-18T01:53:46.562Z,8.70
2023-02-18T01:56:22.208Z,8.73
2023-02-18T01:58:51.286Z,8.74
2023-02-18T02:01:19.265Z,8.73
2023-02-18T02:03:47.027Z,8.76
2023-02-18T02:06:19.845Z,8.77
2023-02-18T02:08:49.955Z,8.78
2023-02-18T02:11:25.630Z,8.79
2023-02-18T02:14:12.682Z,8.80
2023-02-18T02:16:47.148Z,8.85
2023-02-18T02:19:35.917Z,8.86
2023-02-18T02:22:41.915Z,8.87
2023-02-18T02:25:27.597Z,8.87
2023-02-18T02:28:24.035Z,8.86
2023-02-18T02:31:15.716Z,8.86
2023-02-18T02:34:04.347Z,8.87
2023-02-18T02:36:40.328Z,8.87
2023-02-18T02:39:15.921Z,8.85
2023-02-18T02:41:50.965Z,8.83
2023-02-18T02:44:23.167Z,8.85
2023-02-18T02:46:56.258Z,8.83
2023-02-18T02:49:34.477Z,8.82
2023-02-18T02:52:09.051Z,8.83
2023-02-18T02:54:36.872Z,8.85
2023-02-18T02:57:11.325Z,8.87
2023-02-18T02:59:42.588Z,8.87
2023-02-18T03:02:25.552Z,8.87
2023-02-18T03:05:04.954Z,8.88
2023-02-18T03:08:03.919Z,8.89
2023-02-18T03:10:44.844Z,8.88
2023-02-18T03:13:23.784Z,8.95
2023-02-18T03:15:57.145Z,8.95
2023-02-18T03:18:33.304Z,8.99
2023-02-18T03:21:06.784Z,9.00
2023-02-18T03:23:40.964Z,9.03
2023-02-18T03:26:10.798Z,9.05
2023-02-18T03:28:40.417Z,9.07
2023-02-18T03:31:13.191Z,9.09
2023-02-18T03:33:46.706Z,9.11
2023-02-18T03:36:14.605Z,9.11
2023-02-18T03:38:46.807Z,9.08
2023-02-18T03:41:14.923Z,9.07
2023-02-18T03:43:50.041Z,9.08
2023-02-18T03:46:18.127Z,9.08
2023-02-18T03:48:46.165Z,9.10
2023-02-18T03:51:13.979Z,9.08
2023-02-18T03:53:43.109Z,9.07
2023-02-18T03:56:11.026Z,9.07
2023-02-18T03:58:39.308Z,9.06
2023-02-18T04:01:07.695Z,9.04
2023-02-18T04:03:35.530Z,9.05
2023-02-18T04:06:03.490Z,9.06
2023-02-18T04:08:31.273Z,9.02
2023-02-18T04:11:01.462Z,9.00
2023-02-18T04:13:29.233Z,9.03
2023-02-18T04:15:57.014Z,9.01
2023-02-18T04:18:24.959Z,8.98
2023-02-18T04:20:53.042Z,8.96
2023-02-18T04:23:20.845Z,8.94
2023-02-18T04:25:48.539Z,8.94
2023-02-18T04:28:18.491Z,8.95
2023-02-18T04:30:48.081Z,8.96
2023-02-18T04:33:16.587Z,8.99
2023-02-18T04:35:44.333Z,8.96
2023-02-18T04:38:12.749Z,8.97
2023-02-18T04:40:40.464Z,9.03
2023-02-18T04:43:08.218Z,8.98
2023-02-18T04:45:37.312Z,8.99
2023-02-18T04:48:05.662Z,8.98
2023-02-18T04:50:33.484Z,8.99
2023-02-18T04:53:01.223Z,8.96
2023-02-18T04:55:29.032Z,8.97
2023-02-18T04:57:56.768Z,8.95
2023-02-18T05:00:24.717Z,8.97
2023-02-18T05:02:53.835Z,8.94
2023-02-18T05:05:21.711Z,8.89
2023-02-18T05:07:49.414Z,8.91
2023-02-18T05:10:18.632Z,8.90
2023-02-18T05:12:46.510Z,8.88
2023-02-18T05:15:14.234Z,8.88
2023-02-18T05:17:42.009Z,8.89
2023-02-18T05:20:13.178Z,8.90
2023-02-18T05:22:40.903Z,8.94
2023-02-18T05:25:09.095Z,8.92
2023-02-18T05:27:36.974Z,8.90
2023-02-18T05:30:05.345Z,8.94
2023-02-18T05:32:33.222Z,8.90
2023-02-18T05:35:00.986Z,8.92
2023-02-18T05:37:30.080Z,8.94
2023-02-18T05:39:57.822Z,8.94
2023-02-18T05:42:25.684Z,8.96
2023-02-18T05:44:53.379Z,8.98
2023-02-18T05:47:21.106Z,8.97
2023-02-18T05:49:48.822Z,8.96
2023-02-18T05:52:16.570Z,8.95
2023-02-18T05:54:45.723Z,8.95
2023-02-18T05:57:15.248Z,8.93
2023-02-18T05:59:42.957Z,8.94
2023-02-18T06:02:10.709Z,8.95
2023-02-18T06:04:39.269Z,8.97
2023-02-18T06:07:07.609Z,8.95
2023-02-18T06:09:35.374Z,8.92
2023-02-18T06:12:04.669Z,8.95
2023-02-18T06:14:32.825Z,8.96
2023-02-18T06:17:00.611Z,8.98
2023-02-18T06:19:28.352Z,8.97
2023-02-18T06:21:56.631Z,8.99
2023-02-18T06:24:24.355Z,9.03
2023-02-18T06:26:52.081Z,8.99
2023-02-18T06:29:21.216Z,8.93
2023-02-18T06:31:49.100Z,8.94
2023-02-18T06:34:17.483Z,8.96
2023-02-18T06:36:45.242Z,8.95
2023-02-18T06:39:13.056Z,8.96
2023-02-18T06:41:41.475Z,8.95
2023-02-18T06:44:09.237Z,8.91
2023-02-18T06:46:38.602Z,8.91
2023-02-18T06:49:06.404Z,8.90
2023-02-18T06:51:34.258Z,8.91
2023-02-18T06:54:01.969Z,8.89
2023-02-18T06:56:31.040Z,8.84
2023-02-18T06:58:58.946Z,8.85
2023-02-18T07:01:26.820Z,8.83
2023-02-18T07:03:56.034Z,8.86
2023-02-18T07:06:26.729Z,8.88
2023-02-18T07:08:54.464Z,8.82
2023-02-18T07:11:25.529Z,8.86
2023-02-18T07:13:53.274Z,8.85
2023-02-18T07:16:21.052Z,8.82
2023-02-18T07:18:51.835Z,8.80
2023-02-18T07:21:20.961Z,8.76
2023-02-18T07:23:48.826Z,8.72
2023-02-18T07:26:16.774Z,8.68
2023-02-18T07:28:44.496Z,8.70
2023-02-18T07:31:12.398Z,8.72
2023-02-18T07:33:40.256Z,8.74
2023-02-18T07:36:09.767Z,8.73
2023-02-18T07:38:39.041Z,8.70
2023-02-18T07:41:06.902Z,8.69
2023-02-18T07:43:34.682Z,8.71
2023-02-18T07:46:07.521Z,8.69
2023-02-18T07:48:35.349Z,8.70
2023-02-18T07:51:07.346Z,8.72
2023-02-18T07:53:35.250Z,8.74
2023-02-18T07:56:05.946Z,8.74
2023-02-18T07:58:36.042Z,8.77
2023-02-18T08:01:06.371Z,8.76
2023-02-18T08:03:34.666Z,8.74
2023-02-18T08:06:03.965Z,8.80
2023-02-18T08:08:35.722Z,8.85
2023-02-18T08:11:18.352Z,8.87
2023-02-18T08:13:47.274Z,8.91
2023-02-18T08:16:15.482Z,8.96
2023-02-18T08:18:43.359Z,8.89
2023-02-18T08:21:11.210Z,8.94
2023-02-18T08:23:38.962Z,8.91
2023-02-18T08:26:08.603Z,8.93
2023-02-18T08:28:37.006Z,8.95
2023-02-18T08:31:05.236Z,8.95
2023-02-18T08:33:33.421Z,8.93
2023-02-18T08:36:02.143Z,8.96
2023-02-18T08:38:29.892Z,8.97
2023-02-18T08:41:03.968Z,9.05
2023-02-18T08:43:33.217Z,9.03
2023-02-18T08:46:01.175Z,9.00
2023-02-18T08:48:30.420Z,9.02
2023-02-18T08:50:58.387Z,8.97
2023-02-18T08:53:26.405Z,8.98
2023-02-18T08:55:54.210Z,9.03
2023-02-18T08:58:21.977Z,9.05
2023-02-18T09:00:51.412Z,8.98
2023-02-18T09:03:19.216Z,8.98
2023-02-18T09:05:47.135Z,9.01
2023-02-18T09:08:14.922Z,9.01
2023-02-18T09:10:43.951Z,9.05
2023-02-18T09:13:13.370Z,9.10
2023-02-18T09:15:41.161Z,9.07
2023-02-18T09:18:12.545Z,9.04
2023-02-18T09:20:41.239Z,9.05
2023-02-18T09:23:08.950Z,9.01
2023-02-18T09:25:36.707Z,9.03
2023-02-18T09:28:04.541Z,9.04
2023-02-18T09:30:32.356Z,9.03
2023-02-18T09:33:00.115Z,9.08
2023-02-18T09:35:29.208Z,9.03
2023-02-18T09:37:56.907Z,9.06
2023-02-18T09:40:29.786Z,9.08
2023-02-18T09:42:59.033Z,9.11
2023-02-18T09:45:26.980Z,9.09
2023-02-18T09:47:55.114Z,9.13
2023-02-18T09:50:24.768Z,9.12
2023-02-18T09:52:54.179Z,9.15
2023-02-18T09:55:25.196Z,9.21
2023-02-18T09:57:57.081Z,9.22
2023-02-18T10:00:30.567Z,9.20
2023-02-18T10:03:04.055Z,9.24
2023-02-18T10:05:33.184Z,9.23
2023-02-18T10:08:06.896Z,9.24
2023-02-18T10:10:40.321Z,9.32
2023-02-18T10:13:13.846Z,9.38
2023-02-18T10:15:43.149Z,9.36
2023-02-18T10:18:23.367Z,9.31
2023-02-18T10:20:53.372Z,9.37
2023-02-18T10:23:24.921Z,9.43
2023-02-18T10:25:53.297Z,9.40
2023-02-18T10:28:26.125Z,9.41
2023-02-18T10:30:58.867Z,9.43
2023-02-18T10:33:34.953Z,9.47
2023-02-18T10:36:16.952Z,9.45
2023-02-18T10:39:03.211Z,9.42
2023-02-18T10:41:38.126Z,9.45
2023-02-18T10:44:42.970Z,9.47
2023-02-18T10:47:21.804Z,9.52
2023-02-18T10:49:58.984Z,9.53
2023-02-18T10:52:30.417Z,9.48
2023-02-18T10:55:05.083Z,9.50
2023-02-18T10:57:33.514Z,9.63
2023-02-18T11:00:10.707Z,9.63
2023-02-18T11:02:40.448Z,9.66
2023-02-18T11:05:20.692Z,9.71
2023-02-18T11:07:51.525Z,9.68
2023-02-18T11:10:25.614Z,9.74
2023-02-18T11:12:58.690Z,9.78
2023-02-18T11:15:28.579Z,9.86
2023-02-18T11:17:59.306Z,9.92
2023-02-18T11:20:35.132Z,10.00
2023-02-18T11:23:19.588Z,9.96
2023-02-18T11:26:02.996Z,9.99
2023-02-18T11:28:40.546Z,10.03
2023-02-18T11:31:09.960Z,10.07
2023-02-18T11:33:41.185Z,10.09
2023-02-18T11:36:20.948Z,10.10
2023-02-18T11:38:50.841Z,10.17
2023-02-18T11:41:22.379Z,10.11
2023-02-18T11:43:53.136Z,10.18
2023-02-18T11:46:22.788Z,10.18
2023-02-18T11:48:51.650Z,10.21
2023-02-18T11:51:21.359Z,10.26
2023-02-18T11:53:59.707Z,10.26
2023-02-18T11:56:32.439Z,10.29
2023-02-18T11:59:01.711Z,10.34
2023-02-18T12:01:37.421Z,10.32
2023-02-18T12:04:12.368Z,10.40
2023-02-18T12:06:47.540Z,10.44
2023-02-18T12:09:23.312Z,10.49
2023-02-18T12:11:55.287Z,10.53
2023-02-18T12:14:24.727Z,10.55
2023-02-18T12:17:15.916Z,10.50
2023-02-18T12:20:09.237Z,10.51
2023-02-18T12:22:44.302Z,10.48
2023-02-18T12:25:25.082Z,10.52
2023-02-18T12:28:03.901Z,10.65
2023-02-18T12:30:51.546Z,10.73
2023-02-18T12:33:30.062Z,10.83
2023-02-18T12:36:09.208Z,10.90
2023-02-18T12:38:55.907Z,11.02
2023-02-18T12:41:35.440Z,11.04
2023-02-18T12:44:18.086Z,11.04
2023-02-18T12:47:09.632Z,11.03
2023-02-18T12:49:59.196Z,11.08
2023-02-18T12:52:36.922Z,10.98
2023-02-18T12:55:33.325Z,11.04
2023-02-18T12:58:13.796Z,10.97
2023-02-18T13:00:59.980Z,10.97
2023-02-18T13:04:05.989Z,11.04
2023-02-18T13:06:55.201Z,11.08
2023-02-18T13:09:37.983Z,11.01
2023-02-18T13:12:12.194Z,11.06
2023-02-18T13:14:47.693Z,11.03
2023-02-18T13:17:19.093Z,11.00
2023-02-18T13:19:52.227Z,11.02
2023-02-18T13:22:23.792Z,11.06
2023-02-18T13:24:53.402Z,11.06
2023-02-18T13:27:27.350Z,11.07
2023-02-18T13:30:11.600Z,11.05
2023-02-18T13:32:49.607Z,11.09
2023-02-18T13:35:22.350Z,11.14
2023-02-18T13:38:04.228Z,11.12
2023-02-18T13:40:33.246Z,11.19
2023-02-18T13:43:20.225Z,11.24
2023-02-18T13:46:09.371Z,11.23
2023-02-18T13:48:44.872Z,11.27
2023-02-18T13:51:14.474Z,11.32
2023-02-18T13:53:44.339Z,11.28
2023-02-18T13:56:21.313Z,11.34
2023-02-18T13:58:51.732Z,11.39
2023-02-18T14:01:26.426Z,11.38
2023-02-18T14:04:01.053Z,11.43
2023-02-18T14:06:32.384Z,11.47
2023-02-18T14:09:37.577Z,11.48
2023-02-18T14:12:26.291Z,11.63
2023-02-18T14:14:54.868Z,11.67
2023-02-18T14:17:35.789Z,11.60
2023-02-18T14:20:46.713Z,11.60
2023-02-18T14:23:43.397Z,11.62
2023-02-18T14:26:20.328Z,11.61
2023-02-18T14:28:55.722Z,11.54
2023-02-18T14:31:47.157Z,11.58
2023-02-18T14:34:54.145Z,11.55
2023-02-18T14:37:52.108Z,11.49
2023-02-18T14:40:41.059Z,11.49
2023-02-18T14:43:20.149Z,11.47
2023-02-18T14:46:06.726Z,11.42
2023-02-18T14:48:48.196Z,11.40
2023-02-18T14:51:18.037Z,11.44
2023-02-18T14:53:47.818Z,11.38
2023-02-18T14:56:19.559Z,11.38
2023-02-18T14:58:49.377Z,11.40
2023-02-18T15:01:22.882Z,11.42
2023-02-18T15:03:52.456Z,11.37
2023-02-18T15:06:25.878Z,11.38
2023-02-18T15:08:55.198Z,11.38
2023-02-18T15:11:26.105Z,11.38
2023-02-18T15:13:54.404Z,11.32
2023-02-18T15:16:32.365Z,11.32
2023-02-18T15:19:03.407Z,11.30
2023-02-18T15:21:32.801Z,11.31
2023-02-18T15:24:07.666Z,11.32
2023-02-18T15:26:37.804Z,11.33
2023-02-18T15:29:07.067Z,11.30
2023-02-18T15:31:39.764Z,11.22
2023-02-18T15:34:28.048Z,11.19
2023-02-18T15:36:56.281Z,11.16
2023-02-18T15:39:26.255Z,11.17
2023-02-18T15:41:55.566Z,11.17
2023-02-18T15:44:26.221Z,11.17
2023-02-18T15:46:54.609Z,11.12
2023-02-18T15:49:25.617Z,11.07
2023-02-18T15:51:57.762Z,11.06
2023-02-18T15:54:27.432Z,10.99
2023-02-18T15:56:57.617Z,10.97
2023-02-18T15:59:30.277Z,10.99
2023-02-18T16:02:04.247Z,10.97
2023-02-18T16:04:34.591Z,10.92
2023-02-18T16:07:05.778Z,10.95
2023-02-18T16:09:35.149Z,10.89
2023-02-18T16:12:06.562Z,10.88
2023-02-18T16:14:36.318Z,10.87
2023-02-18T16:17:09.855Z,10.84
2023-02-18T16:20:02.867Z,10.83
2023-02-18T16:22:36.666Z,10.79
2023-02-18T16:25:17.284Z,10.80
2023-02-18T16:27:52.185Z,10.80
2023-02-18T16:30:22.286Z,10.77
2023-02-18T16:32:50.418Z,10.75
2023-02-18T16:35:18.740Z,10.72
2023-02-18T16:37:50.067Z,10.67
2023-02-18T16:40:29.475Z,10.65
2023-02-18T16:42:59.329Z,10.64
2023-02-18T16:45:34.459Z,10.65
2023-02-18T16:48:02.856Z,10.60
2023-02-18T16:50:32.716Z,10.55
2023-02-18T16:53:01.319Z,10.54
2023-02-18T16:55:31.515Z,10.52
2023-02-18T16:57:59.486Z,10.48
2023-02-18T17:00:27.269Z,10.41
2023-02-18T17:02:57.671Z,10.31
2023-02-18T17:05:27.397Z,10.34
2023-02-18T17:07:55.333Z,10.35
2023-02-18T17:10:23.197Z,10.39
2023-02-18T17:12:52.304Z,10.30
2023-02-18T17:15:29.338Z,10.24
2023-02-18T17:17:59.163Z,10.24
2023-02-18T17:20:27.373Z,10.23
2023-02-18T17:22:56.237Z,10.23
2023-02-18T17:25:29.859Z,10.23
2023-02-18T17:27:58.973Z,10.18
2023-02-18T17:30:26.871Z,10.18
2023-02-18T17:32:54.790Z,10.16
2023-02-18T17:35:24.256Z,10.11
2023-02-18T17:37:52.039Z,10.11
2023-02-18T17:40:21.894Z,10.11
2023-02-18T17:42:49.960Z,10.07
2023-02-18T17:45:29.846Z,10.02
2023-02-18T17:47:57.936Z,10.00
2023-02-18T17:50:26.505Z,10.00
2023-02-18T17:52:55.323Z,9.91
2023-02-18T17:55:27.108Z,9.96
2023-02-18T17:57:55.298Z,9.98
2023-02-18T18:00:28.101Z,9.96
2023-02-18T18:02:56.453Z,9.98
2023-02-18T18:05:25.835Z,10.01
2023-02-18T18:07:53.662Z,10.03
2023-02-18T18:10:25.604Z,10.05
2023-02-18T18:12:53.330Z,10.07
2023-02-18T18:15:30.951Z,10.06
2023-02-18T18:17:59.547Z,10.09
2023-02-18T18:20:29.735Z,10.09
2023-02-18T18:22:59.679Z,10.05
2023-02-18T18:25:29.280Z,10.06
2023-02-18T18:27:57.123Z,10.02
2023-02-18T18:30:30.157Z,9.99
2023-02-18T18:32:59.976Z,10.00
2023-02-18T18:35:30.656Z,9.98
2023-02-18T18:37:58.668Z,10.05
2023-02-18T18:40:28.600Z,10.01
2023-02-18T18:42:57.665Z,9.96
2023-02-18T18:45:27.607Z,9.98
2023-02-18T18:47:56.420Z,9.96
2023-02-18T18:50:26.600Z,9.91
2023-02-18T18:52:55.588Z,9.91
2023-02-18T18:55:28.606Z,9.87
2023-02-18T18:57:57.284Z,9.90
2023-02-18T19:00:27.995Z,9.89
2023-02-18T19:02:56.008Z,9.87
2023-02-18T19:05:31.214Z,9.86
2023-02-18T19:07:59.969Z,9.86
2023-02-18T19:10:31.481Z,9.83
2023-02-18T19:13:03.223Z,9.83
2023-02-18T19:15:31.347Z,9.83
2023-02-18T19:17:59.223Z,9.80
2023-02-18T19:20:33.132Z,9.80
2023-02-18T19:23:00.891Z,9.85
2023-02-18T19:25:28.913Z,9.79
2023-02-18T19:27:56.828Z,9.81
2023-02-18T19:30:26.227Z,9.80
2023-02-18T19:32:56.117Z,9.80
2023-02-18T19:35:24.886Z,9.82
2023-02-18T19:37:54.073Z,9.77
2023-02-18T19:40:23.804Z,9.79
2023-02-18T19:42:51.985Z,9.77
2023-02-18T19:45:20.232Z,9.78
2023-02-18T19:47:48.760Z,9.79
2023-02-18T19:50:17.482Z,9.76
2023-02-18T19:52:45.236Z,9.75
2023-02-18T19:55:14.445Z,9.76
2023-02-18T19:57:42.216Z,9.76
2023-02-18T20:00:13.673Z,9.71
2023-02-18T20:02:41.812Z,9.66
2023-02-18T20:05:10.966Z,9.64
2023-02-18T20:07:41.488Z,9.66
2023-02-18T20:10:12.829Z,9.66
2023-02-18T20:12:42.290Z,9.66
2023-02-18T20:15:10.376Z,9.61
2023-02-18T20:17:38.724Z,9.60
2023-02-18T20:20:07.502Z,9.57
2023-02-18T20:22:35.520Z,9.55
2023-02-18T20:25:03.559Z,9.51
2023-02-18T20:27:31.366Z,9.49
2023-02-18T20:30:00.924Z,9.52
2023-02-18T20:32:28.855Z,9.49
2023-02-18T20:34:56.935Z,9.45
2023-02-18T20:37:24.847Z,9.48
2023-02-18T20:39:52.636Z,9.44
2023-02-18T20:42:20.402Z,9.46
2023-02-18T20:44:49.333Z,9.43
2023-02-18T20:47:18.899Z,9.42
2023-02-18T20:49:47.281Z,9.42
2023-02-18T20:52:15.099Z,9.40
2023-02-18T20:54:42.933Z,9.44
2023-02-18T20:57:10.868Z,9.46
2023-02-18T20:59:38.673Z,9.39
2023-02-18T21:02:06.632Z,9.41
2023-02-18T21:04:35.805Z,9.40
2023-02-18T21:07:03.694Z,9.38
2023-02-18T21:09:34.197Z,9.37
2023-02-18T21:12:01.942Z,9.34
2023-02-18T21:14:29.789Z,9.36
2023-02-18T21:16:57.569Z,9.34
2023-02-18T21:19:25.376Z,9.40
2023-02-18T21:21:54.512Z,9.40
2023-02-18T21:24:22.293Z,9.39
2023-02-18T21:26:50.121Z,9.36
2023-02-18T21:29:17.909Z,9.34
2023-02-18T21:31:45.801Z,9.34
2023-02-18T21:34:15.606Z,9.34
2023-02-18T21:36:44.137Z,9.33
2023-02-18T21:39:13.208Z,9.27
2023-02-18T21:41:41.703Z,9.24
2023-02-18T21:44:09.838Z,9.30
2023-02-18T21:46:38.288Z,9.26
2023-02-18T21:49:06.899Z,9.28
2023-02-18T21:51:55.186Z,9.24
2023-02-18T21:54:26.342Z,9.21
2023-02-18T21:56:54.594Z,9.25
2023-02-18T21:59:26.783Z,9.28
2023-02-18T22:01:55.178Z,9.28
2023-02-18T22:04:23.448Z,9.23
2023-02-18T22:06:51.246Z,9.21
2023-02-18T22:09:19.250Z,9.22
2023-02-18T22:11:48.519Z,9.17
2023-02-18T22:14:17.794Z,9.17
2023-02-18T22:16:45.947Z,9.19
2023-02-18T22:19:14.903Z,9.19
2023-02-18T22:21:43.188Z,9.20
2023-02-18T22:24:13.277Z,9.17
2023-02-18T22:26:41.287Z,9.22
2023-02-18T22:29:13.141Z,9.22
2023-02-18T22:31:41.502Z,9.26
2023-02-18T22:34:10.697Z,9.24
2023-02-18T22:36:38.640Z,9.26
2023-02-18T22:39:07.517Z,9.22
2023-02-18T22:41:35.921Z,9.22
2023-02-18T22:44:05.913Z,9.25
2023-02-18T22:46:36.845Z,9.26
2023-02-18T22:49:05.956Z,9.20
2023-02-18T22:51:37.677Z,9.21
2023-02-18T22:54:06.863Z,9.25
2023-02-18T22:56:34.749Z,9.23
2023-02-18T22:59:02.696Z,9.24
2023-02-18T23:01:32.685Z,9.20
2023-02-18T23:04:06.091Z,9.18
2023-02-18T23:06:34.264Z,9.21
2023-02-18T23:09:02.094Z,9.18
2023-02-18T23:11:29.833Z,9.10
2023-02-18T23:14:15.503Z,9.13
2023-02-18T23:17:01.343Z,8.98
2023-02-18T23:19:32.675Z,9.03
2023-02-18T23:22:00.385Z,8.97
2023-02-18T23:24:28.714Z,9.01
2023-02-18T23:26:56.485Z,9.04
2023-02-18T23:29:24.206Z,9.12
2023-02-18T23:31:52.004Z,9.16
2023-02-18T23:34:19.787Z,9.21
2023-02-18T23:36:49.228Z,9.21
2023-02-18T23:39:18.957Z,9.18
2023-02-18T23:41:48.249Z,9.20
2023-02-18T23:44:18.440Z,9.21
2023-02-18T23:46:46.633Z,9.20
2023-02-18T23:49:16.100Z,9.22
2023-02-18T23:51:44.334Z,9.17
2023-02-18T23:54:13.533Z,9.20
2023-02-18T23:56:41.912Z,9.17
2023-02-18T23:59:09.747Z,9.15
